Time,TemperatureF,DewpointF,PressureIn,WindDirection,WindDirectionDegrees,WindSpeedMPH,WindSpeedGustMPH,Humidity,HourlyPrecipIn,Conditions,Clouds,dailyrainin,SolarRadiationWatts/m^2,SoftwareType,DateUTC
2013-07-04 00:00:00,62.6,60.8,28.85,NNW,340,0.0,0.0,94,0.45,RA,FEW,0.55,0.0,WeatherDisplay:10.37,2013-07-03 22:00:00,
2013-07-04 00:05:00,62.6,60.8,28.85,WNW,300,0.0,0.0,94,0.41,RA,FEW,0.00,0.0,WeatherDisplay:10.37,2013-07-03 22:05:00,
2013-07-04 00:10:00,62.6,60.8,28.85,NNW,345,0.0,0.0,94,0.41,CLR,FEW,0.00,0.0,WeatherDisplay:10.37,2013-07-03 22:10:00,
2013-07-04 00:15:00,62.8,61.3,28.85,North,5,0.0,0.0,95,0.10,CLR,FEW,0.00,0.0,WeatherDisplay:10.37,2013-07-03 22:15:00,
2013-07-04 00:20:00,62.6,61.1,28.85,NW,310,0.0,0.0,95,0.02,CLR,FEW,0.00,0.0,WeatherDisplay:10.37,2013-07-03 22:20:00,
2013-07-04 00:25:00,62.6,61.1,28.85,NW,310,0.0,0.0,95,0.02,CLR,FEW,0.00,0.0,WeatherDisplay:10.37,2013-07-03 22:25:00,
2013-07-04 00:30:00,62.4,61.0,28.85,NW,315,0.0,0.0,95,0.02,CLR,FEW,0.00,0.0,WeatherDisplay:10.37,2013-07-03 22:30:00,
2013-07-04 00:36:00,62.6,61.1,28.85,North,350,0.0,0.0,95,0.02,CLR,FEW,0.00,0.0,WeatherDisplay:10.37,2013-07-03 22:36:00,
2013-07-04 00:41:00,62.4,61.0,28.85,North,0,0.0,0.0,95,0.01,CLR,FEW,0.00,0.0,WeatherDisplay:10.37,2013-07-03 22:41:00,
2013-07-04 00:46:00,62.4,61.0,28.85,NW,325,0.0,0.6,95,0.02,RA,FEW,0.01,0.0,WeatherDisplay:10.37,2013-07-03 22:46:00,
2013-07-04 00:51:00,62.2,60.8,28.85,NNW,345,0.0,0.0,95,0.02,CLR,FEW,0.01,0.0,WeatherDisplay:10.37,2013-07-03 22:51:00,
2013-07-04 00:56:00,62.2,60.8,28.85,NNW,345,0.0,0.0,95,0.02,CLR,FEW,0.01,0.0,WeatherDisplay:10.37,2013-07-03 22:56:00,
2013-07-04 01:01:00,62.2,60.8,28.85,NNW,345,0.0,0.0,95,0.01,CLR,FEW,0.01,0.0,WeatherDisplay:10.37,2013-07-03 23:01:00,
2013-07-04 01:06:00,62.2,60.8,28.85,NW,325,0.0,0.0,95,0.01,CLR,FEW,0.01,0.0,WeatherDisplay:10.37,2013-07-03 23:06:00,
2013-07-04 01:11:00,62.2,60.8,28.85,NNW,340,0.0,0.4,95,0.01,CLR,FEW,0.01,0.0,WeatherDisplay:10.37,2013-07-03 23:11:00,
2013-07-04 01:16:00,62.2,60.8,28.85,NNW,345,0.0,0.0,95,0.01,CLR,FEW,0.01,0.0,WeatherDisplay:10.37,2013-07-03 23:16:00,
2013-07-04 01:21:00,62.2,60.8,28.85,North,350,0.0,0.0,95,0.01,CLR,FEW,0.01,0.0,WeatherDisplay:10.37,2013-07-03 23:21:00,
2013-07-04 01:26:00,62.1,60.6,28.85,NNW,345,0.0,0.0,95,0.01,CLR,FEW,0.01,0.0,WeatherDisplay:10.37,2013-07-03 23:26:00,
2013-07-04 01:31:00,62.1,60.6,28.85,NNW,345,0.0,0.0,95,0.01,CLR,FEW,0.01,0.0,WeatherDisplay:10.37,2013-07-03 23:31:00,
2013-07-04 01:36:00,62.1,60.6,28.85,North,10,0.0,0.0,95,0.01,CLR,FEW,0.01,0.0,WeatherDisplay:10.37,2013-07-03 23:36:00,
2013-07-04 01:41:00,62.1,60.6,28.85,NE,55,3.5,3.5,95,0.01,CLR,FEW,0.01,0.0,WeatherDisplay:10.37,2013-07-03 23:41:00,
2013-07-04 01:46:00,62.1,60.6,28.82,WSW,255,0.0,0.0,95,0.03,RA,FEW,0.05,0.0,WeatherDisplay:10.37,2013-07-03 23:46:00,
2013-07-04 01:51:00,62.1,60.6,28.82,NW,305,0.0,0.0,95,0.03,CLR,FEW,0.05,0.0,WeatherDisplay:10.37,2013-07-03 23:51:00,
2013-07-04 01:56:00,62.1,60.6,28.85,West,280,0.0,0.0,95,0.03,CLR,FEW,0.05,0.0,WeatherDisplay:10.37,2013-07-03 23:56:00,
2013-07-04 02:02:00,62.1,60.6,28.85,WNW,290,0.0,0.2,95,0.03,CLR,FEW,0.05,0.0,WeatherDisplay:10.37,2013-07-04 00:02:00,
2013-07-04 02:07:00,62.1,60.6,28.85,North,355,0.0,0.0,95,0.03,CLR,FEW,0.05,0.0,WeatherDisplay:10.37,2013-07-04 00:07:00,
2013-07-04 02:13:00,62.1,60.6,28.85,North,355,0.0,0.0,95,0.03,CLR,FEW,0.05,0.0,WeatherDisplay:10.37,2013-07-04 00:13:00,
2013-07-04 02:18:00,62.1,60.6,28.85,North,0,0.0,0.6,95,0.03,CLR,FEW,0.05,0.0,WeatherDisplay:10.37,2013-07-04 00:18:00,
2013-07-04 02:23:00,61.9,60.4,28.85,NE,40,0.0,0.0,95,0.03,CLR,FEW,0.05,0.0,WeatherDisplay:10.37,2013-07-04 00:23:00,
2013-07-04 02:28:00,61.9,60.4,28.85,NE,40,0.0,0.0,95,0.03,CLR,FEW,0.05,0.0,WeatherDisplay:10.37,2013-07-04 00:28:00,
2013-07-04 02:33:00,61.7,60.3,28.85,WNW,285,0.0,0.0,95,0.03,CLR,FEW,0.05,0.0,WeatherDisplay:10.37,2013-07-04 00:33:00,
2013-07-04 02:38:00,61.7,60.3,28.85,WNW,285,0.0,0.0,95,0.03,CLR,FEW,0.05,0.0,WeatherDisplay:10.37,2013-07-04 00:38:00,
2013-07-04 02:43:00,61.7,60.3,28.85,WNW,285,0.0,0.0,95,0.03,CLR,FEW,0.05,0.0,WeatherDisplay:10.37,2013-07-04 00:43:00,
2013-07-04 02:48:00,61.5,60.1,28.85,West,265,0.0,0.0,95,0.00,CLR,FEW,0.05,0.0,WeatherDisplay:10.37,2013-07-04 00:48:00,
2013-07-04 02:53:00,61.2,60.0,28.85,West,265,0.0,0.0,96,0.00,CLR,FEW,0.05,0.0,WeatherDisplay:10.37,2013-07-04 00:53:00,
2013-07-04 02:58:00,61.2,60.0,28.85,West,265,0.0,0.0,96,0.00,CLR,FEW,0.05,0.0,WeatherDisplay:10.37,2013-07-04 00:58:00,
2013-07-04 03:03:00,60.8,59.7,28.85,West,265,0.0,0.0,96,0.00,CLR,FEW,0.05,0.0,WeatherDisplay:10.37,2013-07-04 01:03:00,
2013-07-04 03:08:00,60.6,59.5,28.85,West,265,0.0,0.0,96,0.00,CLR,FEW,0.05,0.0,WeatherDisplay:10.37,2013-07-04 01:08:00,
2013-07-04 03:13:00,60.4,59.3,28.85,West,265,0.0,0.0,96,0.00,CLR,FEW,0.05,0.0,WeatherDisplay:10.37,2013-07-04 01:13:00,
2013-07-04 03:18:00,60.4,59.3,28.85,West,265,0.0,0.0,96,0.00,CLR,FEW,0.05,0.0,WeatherDisplay:10.37,2013-07-04 01:18:00,
2013-07-04 03:23:00,60.1,58.9,28.85,NNW,340,0.0,0.0,96,0.00,CLR,FEW,0.05,0.0,WeatherDisplay:10.37,2013-07-04 01:23:00,
2013-07-04 03:28:00,59.9,58.8,28.85,North,0,0.0,0.0,96,0.00,CLR,FEW,0.05,0.0,WeatherDisplay:10.37,2013-07-04 01:28:00,
2013-07-04 03:34:00,59.4,58.2,28.85,NNW,340,0.0,0.0,96,0.00,CLR,FEW,0.05,0.0,WeatherDisplay:10.37,2013-07-04 01:34:00,
2013-07-04 03:39:00,59.5,58.4,28.85,North,350,0.0,0.0,96,0.00,CLR,FEW,0.05,0.0,WeatherDisplay:10.37,2013-07-04 01:39:00,
2013-07-04 03:44:00,59.5,58.4,28.88,NNW,345,0.0,0.0,96,0.00,CLR,FEW,0.05,0.0,WeatherDisplay:10.37,2013-07-04 01:44:00,
2013-07-04 03:50:00,59.5,58.4,28.88,NNW,345,0.0,0.0,96,0.00,CLR,FEW,0.05,0.0,WeatherDisplay:10.37,2013-07-04 01:50:00,
2013-07-04 03:55:00,59.5,58.4,28.88,North,355,0.0,0.0,96,0.00,CLR,FEW,0.05,0.0,WeatherDisplay:10.37,2013-07-04 01:55:00,
2013-07-04 04:00:00,59.0,57.9,28.85,North,350,0.0,0.0,96,0.00,CLR,FEW,0.05,0.0,WeatherDisplay:10.37,2013-07-04 02:00:00,
2013-07-04 04:05:00,59.2,58.0,28.85,North,350,0.0,0.0,96,0.00,CLR,FEW,0.05,0.0,WeatherDisplay:10.37,2013-07-04 02:05:00,
2013-07-04 04:10:00,59.2,58.0,28.85,North,350,0.0,0.0,96,0.00,CLR,FEW,0.05,0.0,WeatherDisplay:10.37,2013-07-04 02:10:00,
2013-07-04 04:15:00,59.2,58.3,28.88,NW,320,0.0,0.0,97,0.00,CLR,FEW,0.05,0.0,WeatherDisplay:10.37,2013-07-04 02:15:00,
2013-07-04 04:20:00,59.4,58.5,28.88,NNW,340,0.0,0.0,97,0.00,CLR,FEW,0.05,0.0,WeatherDisplay:10.37,2013-07-04 02:20:00,
2013-07-04 04:25:00,59.4,58.5,28.88,NNW,340,0.0,0.0,97,0.00,CLR,FEW,0.05,0.0,WeatherDisplay:10.37,2013-07-04 02:25:00,
2013-07-04 04:30:00,59.7,58.9,28.88,NNW,335,0.0,0.0,97,0.00,CLR,FEW,0.05,0.0,WeatherDisplay:10.37,2013-07-04 02:30:00,
2013-07-04 04:36:00,59.5,58.7,28.88,NNW,340,0.0,0.0,97,0.00,CLR,FEW,0.05,0.0,WeatherDisplay:10.37,2013-07-04 02:36:00,
2013-07-04 04:41:00,59.2,58.3,28.88,North,350,0.0,0.0,97,0.00,CLR,FEW,0.05,0.0,WeatherDisplay:10.37,2013-07-04 02:41:00,
2013-07-04 04:46:00,59.4,58.5,28.88,NNW,335,0.0,0.0,97,0.00,CLR,FEW,0.05,0.0,WeatherDisplay:10.37,2013-07-04 02:46:00,
2013-07-04 04:51:00,59.5,58.7,28.88,NNW,335,0.0,0.0,97,0.00,CLR,FEW,0.05,0.0,WeatherDisplay:10.37,2013-07-04 02:51:00,
2013-07-04 04:56:00,59.5,58.7,28.88,NNW,335,0.0,0.0,97,0.00,CLR,FEW,0.05,0.0,WeatherDisplay:10.37,2013-07-04 02:56:00,
2013-07-04 05:01:00,59.9,59.0,28.88,North,355,0.0,0.0,97,0.00,OVC,FEW,0.05,0.0,WeatherDisplay:10.37,2013-07-04 03:01:00,
2013-07-04 05:06:00,59.9,59.0,28.88,North,355,0.0,0.0,97,0.00,OVC,FEW,0.05,0.0,WeatherDisplay:10.37,2013-07-04 03:06:00,
2013-07-04 05:12:00,59.7,58.9,28.88,North,355,0.0,0.0,97,0.00,OVC,FEW,0.05,0.0,WeatherDisplay:10.37,2013-07-04 03:12:00,
2013-07-04 05:17:00,59.7,58.9,28.88,North,355,0.0,0.0,97,0.00,OVC,FEW,0.05,0.0,WeatherDisplay:10.37,2013-07-04 03:17:00,
2013-07-04 05:22:00,59.9,59.0,28.88,North,350,0.0,0.0,97,0.00,OVC,FEW,0.05,0.0,WeatherDisplay:10.37,2013-07-04 03:22:00,
2013-07-04 05:27:00,59.9,59.0,28.88,NW,325,0.0,0.0,97,0.00,OVC,FEW,0.05,0.0,WeatherDisplay:10.37,2013-07-04 03:27:00,
2013-07-04 05:32:00,59.9,59.0,28.88,NW,325,0.0,0.0,97,0.00,OVC,FEW,0.05,0.0,WeatherDisplay:10.37,2013-07-04 03:32:00,
2013-07-04 05:37:00,60.1,59.2,28.88,NNW,345,0.0,0.0,97,0.00,OVC,FEW,0.05,0.0,WeatherDisplay:10.37,2013-07-04 03:37:00,
2013-07-04 05:43:00,60.1,59.2,28.88,NNW,345,0.0,0.0,97,0.00,OVC,FEW,0.05,0.0,WeatherDisplay:10.37,2013-07-04 03:43:00,
2013-07-04 05:48:00,60.1,59.2,28.88,NNW,345,0.0,0.0,97,0.00,OVC,FEW,0.05,0.0,WeatherDisplay:10.37,2013-07-04 03:48:00,
2013-07-04 05:53:00,60.1,59.2,28.88,North,350,0.0,0.0,97,0.00,OVC,FEW,0.05,0.0,WeatherDisplay:10.37,2013-07-04 03:53:00,
2013-07-04 05:58:00,59.9,59.0,28.88,North,350,0.0,0.0,97,0.00,OVC,FEW,0.05,0.0,WeatherDisplay:10.37,2013-07-04 03:58:00,
2013-07-04 06:01:00,59.9,59.0,28.88,North,350,0.0,0.0,97,0.00,OVC,FEW,0.05,0.0,WeatherDisplay:10.37,2013-07-04 04:01:00,
2013-07-04 06:02:00,60.3,59.4,28.88,North,350,1.1,1.5,97,0.00,OVC,FEW,0.05,0.0,WeatherDisplay:10.37,2013-07-04 04:02:00,
2013-07-04 06:03:00,60.3,59.4,28.88,North,350,1.1,1.5,97,0.00,OVC,FEW,0.05,0.0,WeatherDisplay:10.37,2013-07-04 04:03:00,
2013-07-04 06:08:00,60.4,59.6,28.88,North,350,0.0,0.0,97,0.00,OVC,FEW,0.05,0.0,WeatherDisplay:10.37,2013-07-04 04:08:00,
2013-07-04 06:13:00,60.4,59.6,28.88,North,350,0.0,0.0,97,0.00,OVC,FEW,0.05,0.0,WeatherDisplay:10.37,2013-07-04 04:13:00,
2013-07-04 06:18:00,60.4,59.6,28.88,North,350,0.0,0.0,97,0.00,OVC,FEW,0.05,0.0,WeatherDisplay:10.37,2013-07-04 04:18:00,
2013-07-04 06:23:00,60.6,59.8,28.88,NNW,345,0.0,0.0,97,0.00,OVC,FEW,0.05,0.0,WeatherDisplay:10.37,2013-07-04 04:23:00,
2013-07-04 06:28:00,60.8,59.9,28.91,NNW,340,0.0,0.0,97,0.00,OVC,FEW,0.05,0.0,WeatherDisplay:10.37,2013-07-04 04:28:00,
2013-07-04 06:33:00,61.0,60.1,28.91,NNW,335,0.0,0.2,97,0.00,OVC,FEW,0.05,0.0,WeatherDisplay:10.37,2013-07-04 04:33:00,
2013-07-04 06:38:00,61.0,60.1,28.91,NNW,335,0.0,0.2,97,0.00,OVC,FEW,0.05,0.0,WeatherDisplay:10.37,2013-07-04 04:38:00,
2013-07-04 06:43:00,61.2,60.3,28.91,NNE,15,2.3,2.3,97,0.00,OVC,FEW,0.05,0.0,WeatherDisplay:10.37,2013-07-04 04:43:00,
2013-07-04 06:48:00,61.2,60.3,28.91,NNW,335,3.5,3.5,97,0.00,OVC,FEW,0.05,0.0,WeatherDisplay:10.37,2013-07-04 04:48:00,
2013-07-04 06:53:00,61.2,60.3,28.91,NNW,345,2.3,2.3,97,0.00,OVC,FEW,0.05,0.0,WeatherDisplay:10.37,2013-07-04 04:53:00,
2013-07-04 06:58:00,61.2,60.3,28.91,North,355,2.3,2.4,97,0.00,OVC,FEW,0.05,0.0,WeatherDisplay:10.37,2013-07-04 04:58:00,
2013-07-04 07:03:00,61.3,60.5,28.91,NW,310,1.1,1.1,97,0.00,OVC,FEW,0.05,0.0,WeatherDisplay:10.37,2013-07-04 05:03:00,
2013-07-04 07:08:00,61.5,60.7,28.91,NNW,345,0.0,0.6,97,0.00,OVC,FEW,0.05,0.0,WeatherDisplay:10.37,2013-07-04 05:08:00,
2013-07-04 07:13:00,61.5,60.7,28.91,NNW,345,0.0,0.6,97,0.00,OVC,FEW,0.05,0.0,WeatherDisplay:10.37,2013-07-04 05:13:00,
2013-07-04 07:18:00,61.5,60.7,28.91,North,0,0.0,0.2,97,0.00,OVC,FEW,0.05,0.0,WeatherDisplay:10.37,2013-07-04 05:18:00,
2013-07-04 07:23:00,61.9,61.0,28.91,NW,325,0.0,0.2,97,0.00,OVC,FEW,0.05,0.0,WeatherDisplay:10.37,2013-07-04 05:23:00,
2013-07-04 07:28:00,62.1,61.2,28.91,NNW,340,1.1,1.1,97,0.00,OVC,FEW,0.05,0.0,WeatherDisplay:10.37,2013-07-04 05:28:00,
2013-07-04 07:33:00,62.2,61.4,28.91,North,5,1.1,1.5,97,0.00,OVC,FEW,0.05,0.0,WeatherDisplay:10.37,2013-07-04 05:33:00,
2013-07-04 07:38:00,62.2,61.4,28.91,North,5,1.1,1.5,97,0.00,OVC,FEW,0.05,0.0,WeatherDisplay:10.37,2013-07-04 05:38:00,
2013-07-04 07:43:00,62.4,61.3,28.91,NW,325,1.1,1.5,96,0.00,OVC,FEW,0.05,0.0,WeatherDisplay:10.37,2013-07-04 05:43:00,
2013-07-04 07:48:00,62.4,61.3,28.91,NNW,335,2.3,2.4,96,0.00,OVC,FEW,0.05,0.0,WeatherDisplay:10.37,2013-07-04 05:48:00,
2013-07-04 07:53:00,62.8,61.6,28.91,NNE,15,2.3,2.3,96,0.00,OVC,FEW,0.05,0.0,WeatherDisplay:10.37,2013-07-04 05:53:00,
2013-07-04 07:58:00,62.8,61.6,28.91,North,10,1.1,1.1,96,0.00,OVC,FEW,0.05,0.0,WeatherDisplay:10.37,2013-07-04 05:58:00,
2013-07-04 08:03:00,63.0,61.8,28.91,NNW,335,3.5,3.5,96,0.00,OVC,FEW,0.05,0.0,WeatherDisplay:10.37,2013-07-04 06:03:00,
2013-07-04 08:08:00,63.1,62.0,28.91,NW,320,2.3,2.4,96,0.00,OVC,FEW,0.05,0.0,WeatherDisplay:10.37,2013-07-04 06:08:00,
2013-07-04 08:13:00,63.1,62.0,28.91,NW,320,2.3,2.4,96,0.00,OVC,FEW,0.05,0.0,WeatherDisplay:10.37,2013-07-04 06:13:00,
2013-07-04 08:18:00,63.5,62.0,28.91,North,5,2.3,2.3,95,0.00,OVC,FEW,0.05,0.0,WeatherDisplay:10.37,2013-07-04 06:18:00,
2013-07-04 08:23:00,63.9,62.4,28.91,NW,315,3.5,3.5,95,0.00,OVC,FEW,0.05,0.0,WeatherDisplay:10.37,2013-07-04 06:23:00,
2013-07-04 08:28:00,64.0,62.3,28.94,NNE,15,2.3,2.3,94,0.00,OVC,FEW,0.05,0.0,WeatherDisplay:10.37,2013-07-04 06:28:00,
2013-07-04 08:33:00,64.8,62.7,28.94,NNE,30,1.1,1.3,93,0.00,OVC,FEW,0.05,0.0,WeatherDisplay:10.37,2013-07-04 06:33:00,
2013-07-04 08:38:00,64.8,62.7,28.94,NNE,30,1.1,1.3,93,0.00,OVC,FEW,0.05,0.0,WeatherDisplay:10.37,2013-07-04 06:38:00,
2013-07-04 08:43:00,64.4,62.0,28.94,NNW,335,3.5,3.5,92,0.00,OVC,FEW,0.05,0.0,WeatherDisplay:10.37,2013-07-04 06:43:00,
2013-07-04 08:48:00,64.8,62.4,28.94,North,5,2.3,2.8,92,0.00,OVC,FEW,0.05,0.0,WeatherDisplay:10.37,2013-07-04 06:48:00,
2013-07-04 08:53:00,65.1,62.7,28.94,NW,325,2.3,2.6,92,0.00,OVC,FEW,0.05,0.0,WeatherDisplay:10.37,2013-07-04 06:53:00,
2013-07-04 08:58:00,65.7,62.6,28.94,North,0,2.3,2.8,90,0.00,OVC,FEW,0.05,0.0,WeatherDisplay:10.37,2013-07-04 06:58:00,
2013-07-04 09:03:00,66.0,62.7,28.94,NNW,340,3.5,3.8,89,0.00,OVC,FEW,0.05,0.0,WeatherDisplay:10.37,2013-07-04 07:03:00,
2013-07-04 09:08:00,66.2,62.5,28.94,NNW,345,3.5,3.5,88,0.00,OVC,FEW,0.05,0.0,WeatherDisplay:10.37,2013-07-04 07:08:00,
2013-07-04 09:13:00,66.2,62.5,28.94,NNW,345,3.5,3.5,88,0.00,OVC,FEW,0.05,0.0,WeatherDisplay:10.37,2013-07-04 07:13:00,
2013-07-04 09:18:00,66.9,63.2,28.94,NW,315,2.3,2.3,88,0.00,OVC,FEW,0.05,0.0,WeatherDisplay:10.37,2013-07-04 07:18:00,
2013-07-04 09:23:00,67.6,63.3,28.94,North,350,2.3,2.4,86,0.00,OVC,FEW,0.05,0.0,WeatherDisplay:10.37,2013-07-04 07:23:00,
2013-07-04 09:28:00,66.7,61.7,28.94,ENE,75,6.9,6.9,84,0.00,OVC,FEW,0.05,0.0,WeatherDisplay:10.37,2013-07-04 07:28:00,
2013-07-04 09:33:00,69.4,64.4,28.94,WNW,295,2.3,2.4,84,0.00,OVC,FEW,0.05,0.0,WeatherDisplay:10.37,2013-07-04 07:33:00,
2013-07-04 09:38:00,69.4,64.4,28.94,WNW,295,2.3,2.4,84,0.00,OVC,FEW,0.05,0.0,WeatherDisplay:10.37,2013-07-04 07:38:00,
2013-07-04 09:43:00,68.7,63.3,28.94,NNE,25,3.5,3.5,83,0.00,OVC,FEW,0.05,0.0,WeatherDisplay:10.37,2013-07-04 07:43:00,
2013-07-04 09:48:00,68.9,62.8,28.94,North,0,4.6,5.1,81,0.00,OVC,FEW,0.05,0.0,WeatherDisplay:10.37,2013-07-04 07:48:00,
2013-07-04 09:53:00,68.9,62.5,28.94,North,5,5.8,5.8,80,0.00,OVC,FEW,0.05,0.0,WeatherDisplay:10.37,2013-07-04 07:53:00,
2013-07-04 09:58:00,68.5,62.5,28.94,NNE,25,4.6,4.6,81,0.00,OVC,FEW,0.05,0.0,WeatherDisplay:10.37,2013-07-04 07:58:00,
2013-07-04 10:03:00,68.4,62.3,28.94,NNE,25,4.6,4.6,81,0.00,OVC,FEW,0.05,0.0,WeatherDisplay:10.37,2013-07-04 08:03:00,
2013-07-04 10:08:00,67.8,61.4,28.94,NE,45,5.8,5.8,80,0.00,OVC,FEW,0.05,0.0,WeatherDisplay:10.37,2013-07-04 08:08:00,
2013-07-04 10:13:00,67.8,61.4,28.94,NE,45,5.8,5.8,80,0.00,OVC,FEW,0.05,0.0,WeatherDisplay:10.37,2013-07-04 08:13:00,
2013-07-04 10:18:00,68.4,61.9,28.94,North,350,4.6,4.6,80,0.00,OVC,FEW,0.05,0.0,WeatherDisplay:10.37,2013-07-04 08:18:00,
2013-07-04 10:23:00,68.5,61.4,28.94,ENE,75,6.9,6.9,78,0.00,OVC,FEW,0.05,0.0,WeatherDisplay:10.37,2013-07-04 08:23:00,
2013-07-04 10:28:00,69.1,61.9,28.94,NNW,345,4.6,4.6,78,0.00,OVC,FEW,0.05,0.0,WeatherDisplay:10.37,2013-07-04 08:28:00,
2013-07-04 10:33:00,68.5,61.4,28.94,NNW,335,5.8,5.8,78,0.00,OVC,FEW,0.05,0.0,WeatherDisplay:10.37,2013-07-04 08:33:00,
2013-07-04 10:38:00,68.5,61.4,28.94,NNW,335,5.8,5.8,78,0.00,OVC,FEW,0.05,0.0,WeatherDisplay:10.37,2013-07-04 08:38:00,
2013-07-04 10:43:00,68.7,61.6,28.94,NW,325,2.3,2.6,78,0.00,OVC,FEW,0.05,0.0,WeatherDisplay:10.37,2013-07-04 08:43:00,
2013-07-04 10:48:00,68.7,61.6,28.97,North,0,3.5,3.5,78,0.00,OVC,FEW,0.05,0.0,WeatherDisplay:10.37,2013-07-04 08:48:00,
2013-07-04 10:53:00,68.9,61.8,28.97,NE,40,1.1,1.7,78,0.00,OVC,FEW,0.05,0.0,WeatherDisplay:10.37,2013-07-04 08:53:00,
2013-07-04 10:58:00,69.3,62.1,28.97,NNE,30,1.1,1.1,78,0.00,OVC,FEW,0.05,0.0,WeatherDisplay:10.37,2013-07-04 08:58:00,
2013-07-04 11:03:00,70.2,62.6,28.97,North,355,0.0,0.0,77,0.00,OVC,FEW,0.05,0.0,WeatherDisplay:10.37,2013-07-04 09:03:00,
2013-07-04 11:08:00,69.6,61.7,28.97,NE,55,3.5,3.5,76,0.00,OVC,FEW,0.05,0.0,WeatherDisplay:10.37,2013-07-04 09:08:00,
2013-07-04 11:13:00,69.6,61.7,28.97,NE,55,3.5,3.5,76,0.00,OVC,FEW,0.05,0.0,WeatherDisplay:10.37,2013-07-04 09:13:00,
2013-07-04 11:18:00,70.2,61.9,28.97,SSW,210,2.3,2.4,75,0.00,OVC,FEW,0.05,0.0,WeatherDisplay:10.37,2013-07-04 09:18:00,
2013-07-04 11:23:00,70.7,62.4,28.97,SSE,155,3.5,3.5,75,0.00,OVC,FEW,0.05,0.0,WeatherDisplay:10.37,2013-07-04 09:23:00,
2013-07-04 11:28:00,71.4,61.9,28.97,West,280,1.1,1.7,72,0.00,OVC,FEW,0.05,0.0,WeatherDisplay:10.37,2013-07-04 09:28:00,
2013-07-04 11:33:00,72.0,63.2,28.97,WSW,240,2.3,2.3,74,0.00,OVC,FEW,0.05,0.0,WeatherDisplay:10.37,2013-07-04 09:33:00,
2013-07-04 11:38:00,72.0,63.2,28.97,WSW,240,2.3,2.3,74,0.00,OVC,FEW,0.05,0.0,WeatherDisplay:10.37,2013-07-04 09:38:00,
2013-07-04 11:43:00,72.3,63.2,28.97,WSW,255,2.3,2.4,73,0.00,OVC,FEW,0.05,0.0,WeatherDisplay:10.37,2013-07-04 09:43:00,
2013-07-04 11:48:00,73.0,63.1,28.97,NE,50,0.0,0.0,71,0.00,OVC,FEW,0.05,0.0,WeatherDisplay:10.37,2013-07-04 09:48:00,
2013-07-04 11:53:00,71.6,62.9,28.97,ENE,60,2.3,2.3,74,0.00,OVC,FEW,0.05,0.0,WeatherDisplay:10.37,2013-07-04 09:53:00,
2013-07-04 11:58:00,70.9,62.2,28.97,NW,320,2.3,2.3,74,0.00,OVC,FEW,0.05,0.0,WeatherDisplay:10.37,2013-07-04 09:58:00,
2013-07-04 12:03:00,71.4,62.7,28.97,NW,315,2.3,2.3,74,0.00,OVC,FEW,0.05,0.0,WeatherDisplay:10.37,2013-07-04 10:03:00,
2013-07-04 12:08:00,71.6,62.5,28.97,WNW,290,3.5,3.5,73,0.00,OVC,FEW,0.05,0.0,WeatherDisplay:10.37,2013-07-04 10:08:00,
2013-07-04 12:13:00,71.6,62.5,28.97,WNW,290,3.5,3.5,73,0.00,OVC,FEW,0.05,0.0,WeatherDisplay:10.37,2013-07-04 10:13:00,
2013-07-04 12:18:00,71.4,62.7,28.97,NNE,25,2.3,2.8,74,0.00,OVC,FEW,0.05,0.0,WeatherDisplay:10.37,2013-07-04 10:18:00,
2013-07-04 12:23:00,71.8,62.7,28.97,NE,45,2.3,2.4,73,0.00,OVC,FEW,0.05,0.0,WeatherDisplay:10.37,2013-07-04 10:23:00,
2013-07-04 12:28:00,72.5,63.4,28.97,NNW,345,5.8,5.8,73,0.00,OVC,FEW,0.05,0.0,WeatherDisplay:10.37,2013-07-04 10:28:00,
2013-07-04 12:33:00,72.5,63.0,28.97,NW,310,3.5,3.5,72,0.00,OVC,FEW,0.05,0.0,WeatherDisplay:10.37,2013-07-04 10:33:00,
2013-07-04 12:38:00,72.5,63.0,28.97,NW,310,3.5,3.5,72,0.00,OVC,FEW,0.05,0.0,WeatherDisplay:10.37,2013-07-04 10:38:00,
2013-07-04 12:43:00,72.0,62.4,28.97,NNW,330,5.8,5.8,72,0.00,OVC,FEW,0.05,0.0,WeatherDisplay:10.37,2013-07-04 10:43:00,
2013-07-04 12:48:00,72.0,62.8,28.97,West,270,3.5,3.5,73,0.00,OVC,FEW,0.05,0.0,WeatherDisplay:10.37,2013-07-04 10:48:00,
2013-07-04 12:53:00,71.1,62.0,28.97,East,95,3.5,3.8,73,0.00,OVC,FEW,0.05,0.0,WeatherDisplay:10.37,2013-07-04 10:53:00,
2013-07-04 12:58:00,70.9,62.2,29.00,North,0,4.6,4.7,74,0.00,OVC,FEW,0.05,0.0,WeatherDisplay:10.37,2013-07-04 10:58:00,
2013-07-04 13:03:00,71.1,62.4,29.00,NNW,330,2.3,2.8,74,0.00,OVC,FEW,0.05,0.0,WeatherDisplay:10.37,2013-07-04 11:03:00,
2013-07-04 13:08:00,70.9,62.2,29.00,NNW,345,2.3,2.6,74,0.00,OVC,FEW,0.05,0.0,WeatherDisplay:10.37,2013-07-04 11:08:00,
2013-07-04 13:13:00,70.9,62.2,29.00,NNW,345,2.3,2.6,74,0.00,OVC,FEW,0.05,0.0,WeatherDisplay:10.37,2013-07-04 11:13:00,
2013-07-04 13:18:00,69.4,60.8,28.97,North,350,4.6,4.9,74,0.00,OVC,FEW,0.05,0.0,WeatherDisplay:10.37,2013-07-04 11:18:00,
2013-07-04 13:23:00,69.1,60.8,28.97,NNE,25,3.5,3.5,75,0.00,OVC,FEW,0.05,0.0,WeatherDisplay:10.37,2013-07-04 11:23:00,
2013-07-04 13:28:00,68.9,60.6,29.00,North,10,3.5,3.5,75,0.00,OVC,FEW,0.05,0.0,WeatherDisplay:10.37,2013-07-04 11:28:00,
2013-07-04 13:33:00,69.4,61.5,29.00,North,10,2.3,2.4,76,0.00,OVC,FEW,0.05,0.0,WeatherDisplay:10.37,2013-07-04 11:33:00,
2013-07-04 13:38:00,69.4,61.5,29.00,North,10,2.3,2.4,76,0.00,OVC,FEW,0.05,0.0,WeatherDisplay:10.37,2013-07-04 11:38:00,
2013-07-04 13:43:00,69.3,61.4,29.00,NW,310,2.3,2.3,76,0.00,OVC,FEW,0.05,0.0,WeatherDisplay:10.37,2013-07-04 11:43:00,
2013-07-04 13:48:00,69.1,61.2,29.00,NE,35,4.6,4.6,76,0.00,OVC,FEW,0.05,0.0,WeatherDisplay:10.37,2013-07-04 11:48:00,
2013-07-04 13:53:00,69.1,61.2,29.00,NE,35,4.6,4.6,76,0.00,OVC,FEW,0.05,0.0,WeatherDisplay:10.37,2013-07-04 11:53:00,
2013-07-04 13:58:00,70.0,62.1,29.00,North,5,3.5,3.5,76,0.00,OVC,FEW,0.05,0.0,WeatherDisplay:10.37,2013-07-04 11:58:00,
2013-07-04 14:03:00,70.2,62.2,29.00,NE,35,3.5,3.5,76,0.00,OVC,FEW,0.05,0.0,WeatherDisplay:10.37,2013-07-04 12:03:00,
2013-07-04 14:08:00,69.8,61.1,29.00,ENE,70,4.6,5.1,74,0.00,OVC,FEW,0.05,0.0,WeatherDisplay:10.37,2013-07-04 12:08:00,
2013-07-04 14:13:00,69.8,61.1,29.00,ENE,70,4.6,5.1,74,0.00,OVC,FEW,0.05,0.0,WeatherDisplay:10.37,2013-07-04 12:13:00,
2013-07-04 14:18:00,70.2,62.2,29.00,East,80,4.6,4.9,76,0.00,OVC,FEW,0.05,0.0,WeatherDisplay:10.37,2013-07-04 12:18:00,
2013-07-04 14:23:00,70.2,61.9,29.00,North,355,5.8,5.8,75,0.00,OVC,FEW,0.05,0.0,WeatherDisplay:10.37,2013-07-04 12:23:00,
2013-07-04 14:28:00,70.7,62.4,29.00,NE,45,5.8,5.8,75,0.00,OVC,FEW,0.05,0.0,WeatherDisplay:10.37,2013-07-04 12:28:00,
2013-07-04 14:33:00,70.5,61.4,29.00,North,355,5.8,5.8,73,0.00,OVC,FEW,0.05,0.0,WeatherDisplay:10.37,2013-07-04 12:33:00,
2013-07-04 14:38:00,70.5,61.4,29.00,North,355,5.8,5.8,73,0.00,OVC,FEW,0.05,0.0,WeatherDisplay:10.37,2013-07-04 12:38:00,
2013-07-04 14:43:00,70.7,62.0,29.00,North,355,6.9,6.9,74,0.00,OVC,FEW,0.05,0.0,WeatherDisplay:10.37,2013-07-04 12:43:00,
2013-07-04 14:48:00,70.9,62.2,29.00,NE,55,5.8,6.0,74,0.00,OVC,FEW,0.05,0.0,WeatherDisplay:10.37,2013-07-04 12:48:00,
2013-07-04 14:53:00,71.2,62.1,29.00,North,5,5.8,5.8,73,0.00,OVC,FEW,0.05,0.0,WeatherDisplay:10.37,2013-07-04 12:53:00,
2013-07-04 14:58:00,71.2,62.1,29.00,North,5,5.8,5.8,73,0.00,OVC,FEW,0.05,0.0,WeatherDisplay:10.37,2013-07-04 12:58:00,
2013-07-04 15:03:00,71.4,61.9,29.00,East,90,3.5,3.5,72,0.00,OVC,FEW,0.05,0.0,WeatherDisplay:10.37,2013-07-04 13:03:00,
2013-07-04 15:08:00,71.6,62.9,29.00,North,355,2.3,2.6,74,0.00,OVC,FEW,0.05,0.0,WeatherDisplay:10.37,2013-07-04 13:08:00,
2013-07-04 15:13:00,71.6,62.9,29.00,North,355,2.3,2.6,74,0.00,OVC,FEW,0.05,0.0,WeatherDisplay:10.37,2013-07-04 13:13:00,
2013-07-04 15:18:00,71.2,61.4,29.00,North,10,4.6,4.7,71,0.00,OVC,FEW,0.05,0.0,WeatherDisplay:10.37,2013-07-04 13:18:00,
2013-07-04 15:23:00,71.6,61.7,29.00,NNW,345,4.6,5.1,71,0.00,OVC,FEW,0.05,0.0,WeatherDisplay:10.37,2013-07-04 13:23:00,
2013-07-04 15:28:00,71.4,61.9,29.00,NNW,335,4.6,4.6,72,0.00,OVC,FEW,0.05,0.0,WeatherDisplay:10.37,2013-07-04 13:28:00,
2013-07-04 15:33:00,71.8,61.9,29.00,NW,320,5.8,5.8,71,0.00,OVC,FEW,0.05,0.0,WeatherDisplay:10.37,2013-07-04 13:33:00,
2013-07-04 15:38:00,71.8,61.9,29.00,NW,320,5.8,5.8,71,0.00,OVC,FEW,0.05,0.0,WeatherDisplay:10.37,2013-07-04 13:38:00,
2013-07-04 15:43:00,72.1,62.6,29.00,NNE,25,2.3,2.3,72,0.00,OVC,FEW,0.05,0.0,WeatherDisplay:10.37,2013-07-04 13:43:00,
2013-07-04 15:48:00,72.3,62.4,29.00,NNE,15,3.5,3.5,71,0.00,OVC,FEW,0.05,0.0,WeatherDisplay:10.37,2013-07-04 13:48:00,
2013-07-04 15:53:00,71.8,61.9,29.00,North,10,2.3,2.6,71,0.00,OVC,FEW,0.05,0.0,WeatherDisplay:10.37,2013-07-04 13:53:00,
2013-07-04 15:58:00,72.1,62.6,29.00,NW,315,2.3,2.3,72,0.00,OVC,FEW,0.05,0.0,WeatherDisplay:10.37,2013-07-04 13:58:00,
2013-07-04 16:03:00,71.8,61.9,29.00,NNW,345,3.5,4.0,71,0.00,OVC,FEW,0.05,0.0,WeatherDisplay:10.37,2013-07-04 14:03:00,
2013-07-04 16:08:00,71.8,62.3,29.00,NE,35,3.5,3.5,72,0.00,OVC,FEW,0.05,0.0,WeatherDisplay:10.37,2013-07-04 14:08:00,
2013-07-04 16:13:00,72.7,63.1,29.00,NE,45,2.3,2.3,72,0.00,OVC,FEW,0.05,0.0,WeatherDisplay:10.37,2013-07-04 14:13:00,
2013-07-04 16:18:00,72.7,63.1,29.00,NE,45,2.3,2.3,72,0.00,OVC,FEW,0.05,0.0,WeatherDisplay:10.37,2013-07-04 14:18:00,
2013-07-04 16:23:00,73.0,62.7,29.00,North,0,3.5,3.5,70,0.00,OVC,FEW,0.05,0.0,WeatherDisplay:10.37,2013-07-04 14:23:00,
2013-07-04 16:28:00,72.0,61.2,29.00,NNE,30,6.9,7.3,69,0.00,OVC,FEW,0.05,0.0,WeatherDisplay:10.37,2013-07-04 14:28:00,
2013-07-04 16:33:00,73.2,63.2,29.00,NNW,345,2.3,2.6,71,0.00,OVC,FEW,0.05,0.0,WeatherDisplay:10.37,2013-07-04 14:33:00,
2013-07-04 16:38:00,73.4,62.2,29.00,NE,35,4.6,4.6,68,0.00,OVC,FEW,0.05,0.0,WeatherDisplay:10.37,2013-07-04 14:38:00,
2013-07-04 16:43:00,73.4,62.2,29.00,NE,35,4.6,4.6,68,0.00,OVC,FEW,0.05,0.0,WeatherDisplay:10.37,2013-07-04 14:43:00,
2013-07-04 16:48:00,74.1,62.5,29.00,NNW,330,4.6,4.9,67,0.00,OVC,FEW,0.05,0.0,WeatherDisplay:10.37,2013-07-04 14:48:00,
2013-07-04 16:53:00,75.0,63.7,29.00,South,190,4.6,4.6,68,0.00,OVC,FEW,0.05,0.0,WeatherDisplay:10.37,2013-07-04 14:53:00,
2013-07-04 16:58:00,74.5,61.9,29.00,ENE,65,2.3,2.3,65,0.00,OVC,FEW,0.05,0.0,WeatherDisplay:10.37,2013-07-04 14:58:00,
2013-07-04 17:03:00,73.8,61.7,29.00,ENE,75,5.8,5.8,66,0.00,OVC,FEW,0.05,0.0,WeatherDisplay:10.37,2013-07-04 15:03:00,
2013-07-04 17:08:00,73.8,61.7,29.00,SW,215,2.3,2.3,66,0.00,OVC,FEW,0.05,0.0,WeatherDisplay:10.37,2013-07-04 15:08:00,
2013-07-04 17:13:00,75.6,63.0,29.00,West,275,0.0,0.0,65,0.00,OVC,FEW,0.05,0.0,WeatherDisplay:10.37,2013-07-04 15:13:00,
2013-07-04 17:18:00,75.6,63.0,29.00,West,275,0.0,0.0,65,0.00,OVC,FEW,0.05,0.0,WeatherDisplay:10.37,2013-07-04 15:18:00,
2013-07-04 17:23:00,75.6,62.5,29.00,NNW,330,4.6,4.6,64,0.00,OVC,FEW,0.05,0.0,WeatherDisplay:10.37,2013-07-04 15:23:00,
2013-07-04 17:28:00,74.8,61.8,29.00,ENE,75,3.5,3.5,64,0.00,OVC,FEW,0.05,0.0,WeatherDisplay:10.37,2013-07-04 15:28:00,
2013-07-04 17:33:00,74.8,61.8,29.00,South,180,4.6,4.9,64,0.00,OVC,FEW,0.05,0.0,WeatherDisplay:10.37,2013-07-04 15:33:00,
2013-07-04 17:38:00,74.8,62.3,29.00,South,185,4.6,4.9,65,0.00,OVC,FEW,0.05,0.0,WeatherDisplay:10.37,2013-07-04 15:38:00,
2013-07-04 17:43:00,74.8,62.3,29.00,South,185,4.6,4.9,65,0.00,OVC,FEW,0.05,0.0,WeatherDisplay:10.37,2013-07-04 15:43:00,
2013-07-04 17:48:00,74.8,62.3,29.00,East,85,5.8,6.0,65,0.00,OVC,FEW,0.05,0.0,WeatherDisplay:10.37,2013-07-04 15:48:00,
2013-07-04 17:53:00,74.8,62.3,29.00,East,85,5.8,6.0,65,0.00,OVC,FEW,0.05,0.0,WeatherDisplay:10.37,2013-07-04 15:53:00,
2013-07-04 17:58:00,76.5,63.8,29.00,NW,315,2.3,2.3,65,0.00,OVC,FEW,0.05,0.0,WeatherDisplay:10.37,2013-07-04 15:58:00,
2013-07-04 18:03:00,75.6,61.2,29.00,NE,45,4.6,4.9,61,0.00,OVC,FEW,0.05,0.0,WeatherDisplay:10.37,2013-07-04 16:03:00,
2013-07-04 18:08:00,75.9,62.4,29.00,North,5,4.6,4.6,63,0.00,OVC,FEW,0.05,0.0,WeatherDisplay:10.37,2013-07-04 16:08:00,
2013-07-04 18:13:00,75.7,61.8,29.00,NNW,335,2.3,2.4,62,0.00,OVC,FEW,0.05,0.0,WeatherDisplay:10.37,2013-07-04 16:13:00,
2013-07-04 18:18:00,75.7,61.8,29.00,NNW,335,2.3,2.4,62,0.00,OVC,FEW,0.05,0.0,WeatherDisplay:10.37,2013-07-04 16:18:00,
2013-07-04 18:23:00,76.3,62.8,29.00,North,5,3.5,3.5,63,0.00,OVC,FEW,0.05,0.0,WeatherDisplay:10.37,2013-07-04 16:23:00,
2013-07-04 18:28:00,75.4,61.0,29.00,ESE,115,2.3,2.8,61,0.00,OVC,FEW,0.05,0.0,WeatherDisplay:10.37,2013-07-04 16:28:00,
2013-07-04 18:33:00,75.4,61.0,29.00,SE,145,2.3,2.4,61,0.00,OVC,FEW,0.05,0.0,WeatherDisplay:10.37,2013-07-04 16:33:00,
2013-07-04 18:38:00,75.4,61.0,29.00,SE,145,2.3,2.4,61,0.00,OVC,FEW,0.05,0.0,WeatherDisplay:10.37,2013-07-04 16:38:00,
2013-07-04 18:43:00,75.4,61.0,29.00,SE,145,2.3,2.4,61,0.00,OVC,FEW,0.05,0.0,WeatherDisplay:10.37,2013-07-04 16:43:00,
2013-07-04 18:48:00,75.6,61.6,29.00,ESE,110,4.6,4.6,62,0.00,OVC,FEW,0.05,0.0,WeatherDisplay:10.37,2013-07-04 16:48:00,
2013-07-04 18:53:00,76.3,62.3,29.00,SSE,150,1.1,1.1,62,0.00,OVC,FEW,0.05,0.0,WeatherDisplay:10.37,2013-07-04 16:53:00,
2013-07-04 18:58:00,75.4,61.0,29.00,ESE,120,2.3,2.8,61,0.00,OVC,FEW,0.05,0.0,WeatherDisplay:10.37,2013-07-04 16:58:00,
2013-07-04 19:03:00,75.2,60.8,29.00,ESE,120,2.3,2.4,61,0.00,OVC,FEW,0.05,0.0,WeatherDisplay:10.37,2013-07-04 17:03:00,
2013-07-04 19:08:00,75.9,61.5,29.00,ESE,115,1.1,1.5,61,0.00,OVC,FEW,0.05,0.0,WeatherDisplay:10.37,2013-07-04 17:08:00,
2013-07-04 19:13:00,76.3,60.9,29.00,SW,215,0.0,0.0,59,0.00,OVC,FEW,0.05,0.0,WeatherDisplay:10.37,2013-07-04 17:13:00,
2013-07-04 19:18:00,76.3,60.9,29.00,SW,215,0.0,0.0,59,0.00,OVC,FEW,0.05,0.0,WeatherDisplay:10.37,2013-07-04 17:18:00,
2013-07-04 19:23:00,76.3,60.9,29.00,SW,215,0.0,0.0,59,0.00,OVC,FEW,0.05,0.0,WeatherDisplay:10.37,2013-07-04 17:23:00,
2013-07-04 19:28:00,75.9,62.9,29.00,NW,320,0.0,0.6,64,0.00,OVC,FEW,0.05,0.0,WeatherDisplay:10.37,2013-07-04 17:28:00,
2013-07-04 19:33:00,76.5,63.8,29.00,North,0,0.0,0.0,65,0.00,OVC,FEW,0.05,0.0,WeatherDisplay:10.37,2013-07-04 17:33:00,
2013-07-04 19:38:00,76.3,63.6,29.00,NNE,25,0.0,0.0,65,0.00,OVC,FEW,0.05,0.0,WeatherDisplay:10.37,2013-07-04 17:38:00,
2013-07-04 19:43:00,76.3,63.6,29.00,NNE,25,0.0,0.0,65,0.00,OVC,FEW,0.05,0.0,WeatherDisplay:10.37,2013-07-04 17:43:00,
2013-07-04 19:48:00,75.9,63.7,29.00,NE,55,0.0,0.0,66,0.00,OVC,FEW,0.05,0.0,WeatherDisplay:10.37,2013-07-04 17:48:00,
2013-07-04 19:53:00,76.6,64.9,29.00,NNE,25,0.0,0.0,67,0.00,OVC,FEW,0.05,0.0,WeatherDisplay:10.37,2013-07-04 17:53:00,
2013-07-04 19:58:00,75.7,63.6,29.00,ENE,65,0.0,0.0,66,0.00,OVC,FEW,0.05,0.0,WeatherDisplay:10.37,2013-07-04 17:58:00,
2013-07-04 20:03:00,75.6,64.3,29.00,SE,125,0.0,0.0,68,0.00,OVC,FEW,0.05,0.0,WeatherDisplay:10.37,2013-07-04 18:03:00,
2013-07-04 20:08:00,74.8,64.0,29.00,SE,125,0.0,0.0,69,0.00,OVC,FEW,0.05,0.0,WeatherDisplay:10.37,2013-07-04 18:08:00,
2013-07-04 20:13:00,73.8,63.8,29.00,SE,125,0.0,0.0,71,0.00,OVC,FEW,0.05,0.0,WeatherDisplay:10.37,2013-07-04 18:13:00,
2013-07-04 20:18:00,73.8,63.8,29.00,SE,125,0.0,0.0,71,0.00,OVC,FEW,0.05,0.0,WeatherDisplay:10.37,2013-07-04 18:18:00,
2013-07-04 20:23:00,72.7,63.5,29.00,SE,125,0.0,0.0,73,0.00,OVC,FEW,0.05,0.0,WeatherDisplay:10.37,2013-07-04 18:23:00,
2013-07-04 20:28:00,72.3,63.2,29.00,SE,125,0.0,0.0,73,0.00,OVC,FEW,0.05,0.0,WeatherDisplay:10.37,2013-07-04 18:28:00,
2013-07-04 20:33:00,71.2,62.9,29.00,SE,125,0.0,0.0,75,0.00,OVC,FEW,0.05,0.0,WeatherDisplay:10.37,2013-07-04 18:33:00,
2013-07-04 20:38:00,69.3,62.5,29.00,SE,125,0.0,0.0,79,0.00,OVC,FEW,0.05,0.0,WeatherDisplay:10.37,2013-07-04 18:38:00,
2013-07-04 20:43:00,69.3,62.5,29.00,SE,125,0.0,0.0,79,0.00,OVC,FEW,0.05,0.0,WeatherDisplay:10.37,2013-07-04 18:43:00,
2013-07-04 20:48:00,68.7,61.9,29.00,SE,125,0.0,0.0,79,0.00,OVC,FEW,0.05,0.0,WeatherDisplay:10.37,2013-07-04 18:48:00,
2013-07-04 20:53:00,68.0,62.3,29.00,SE,125,0.0,0.0,82,0.00,OVC,FEW,0.05,0.0,WeatherDisplay:10.37,2013-07-04 18:53:00,
2013-07-04 20:58:00,66.9,61.6,29.00,SE,125,0.0,0.0,83,0.00,OVC,FEW,0.05,0.0,WeatherDisplay:10.37,2013-07-04 18:58:00,
2013-07-04 21:03:00,66.2,61.2,29.00,SE,125,0.0,0.0,84,0.00,OVC,FEW,0.05,0.0,WeatherDisplay:10.37,2013-07-04 19:03:00,
2013-07-04 21:08:00,66.0,61.4,29.00,SE,125,0.0,0.0,85,0.00,OVC,FEW,0.05,0.0,WeatherDisplay:10.37,2013-07-04 19:08:00,
2013-07-04 21:13:00,65.3,61.0,29.03,SE,125,0.0,0.0,86,0.00,OVC,FEW,0.05,0.0,WeatherDisplay:10.37,2013-07-04 19:13:00,
2013-07-04 21:18:00,65.3,61.0,29.03,SE,125,0.0,0.0,86,0.00,OVC,FEW,0.05,0.0,WeatherDisplay:10.37,2013-07-04 19:18:00,
2013-07-04 21:23:00,64.9,61.0,29.03,SE,125,0.0,0.0,87,0.00,OVC,FEW,0.05,0.0,WeatherDisplay:10.37,2013-07-04 19:23:00,
2013-07-04 21:28:00,64.4,60.8,29.03,SE,125,0.0,0.0,88,0.00,OVC,FEW,0.05,0.0,WeatherDisplay:10.37,2013-07-04 19:28:00,
2013-07-04 21:33:00,64.4,60.8,29.03,SE,125,0.0,0.0,88,0.00,OVC,FEW,0.05,0.0,WeatherDisplay:10.37,2013-07-04 19:33:00,
2013-07-04 21:38:00,63.7,60.1,29.03,SE,125,0.0,0.0,88,0.00,OVC,FEW,0.05,0.0,WeatherDisplay:10.37,2013-07-04 19:38:00,
2013-07-04 21:43:00,63.7,60.1,29.03,SE,125,0.0,0.0,88,0.00,OVC,FEW,0.05,0.0,WeatherDisplay:10.37,2013-07-04 19:43:00,
2013-07-04 21:48:00,63.1,59.8,29.03,SE,125,0.0,0.0,89,0.00,CLR,FEW,0.05,0.0,WeatherDisplay:10.37,2013-07-04 19:48:00,
2013-07-04 21:53:00,63.0,59.7,29.03,SE,125,0.0,0.0,89,0.00,CLR,FEW,0.05,0.0,WeatherDisplay:10.37,2013-07-04 19:53:00,
2013-07-04 21:58:00,63.0,59.7,29.03,SE,125,0.0,0.0,89,0.00,CLR,FEW,0.05,0.0,WeatherDisplay:10.37,2013-07-04 19:58:00,
2013-07-04 22:03:00,62.6,59.6,29.06,SE,125,0.0,0.0,90,0.00,CLR,FEW,0.05,0.0,WeatherDisplay:10.37,2013-07-04 20:03:00,
2013-07-04 22:08:00,62.2,59.6,29.06,SE,125,0.0,0.0,91,0.00,CLR,FEW,0.05,0.0,WeatherDisplay:10.37,2013-07-04 20:08:00,
2013-07-04 22:13:00,62.1,59.4,29.06,SE,125,0.0,0.0,91,0.00,CLR,FEW,0.05,0.0,WeatherDisplay:10.37,2013-07-04 20:13:00,
2013-07-04 22:18:00,62.1,59.4,29.06,SE,125,0.0,0.0,91,0.00,CLR,FEW,0.05,0.0,WeatherDisplay:10.37,2013-07-04 20:18:00,
2013-07-04 22:23:00,62.2,59.9,29.06,SE,125,0.0,0.0,92,0.00,CLR,FEW,0.05,0.0,WeatherDisplay:10.37,2013-07-04 20:23:00,
2013-07-04 22:28:00,61.9,59.5,29.06,SE,125,0.0,0.0,92,0.00,CLR,FEW,0.05,0.0,WeatherDisplay:10.37,2013-07-04 20:28:00,
2013-07-04 22:33:00,61.9,59.5,29.06,SE,125,0.0,0.0,92,0.00,CLR,FEW,0.05,0.0,WeatherDisplay:10.37,2013-07-04 20:33:00,
2013-07-04 22:38:00,61.9,59.5,29.06,SE,125,0.0,0.0,92,0.00,CLR,FEW,0.05,0.0,WeatherDisplay:10.37,2013-07-04 20:38:00,
2013-07-04 22:43:00,61.9,59.5,29.06,SE,125,0.0,0.0,92,0.00,CLR,FEW,0.05,0.0,WeatherDisplay:10.37,2013-07-04 20:43:00,
2013-07-04 22:48:00,61.5,59.2,29.06,SE,125,0.0,0.0,92,0.00,CLR,FEW,0.05,0.0,WeatherDisplay:10.37,2013-07-04 20:48:00,
2013-07-04 22:53:00,61.2,58.8,29.06,SE,125,0.0,0.0,92,0.00,CLR,FEW,0.05,0.0,WeatherDisplay:10.37,2013-07-04 20:53:00,
2013-07-04 22:58:00,61.0,58.9,29.06,SE,125,0.0,0.0,93,0.00,CLR,FEW,0.05,0.0,WeatherDisplay:10.37,2013-07-04 20:58:00,
2013-07-04 23:03:00,60.6,58.6,29.06,SE,125,0.0,0.0,93,0.00,CLR,FEW,0.05,0.0,WeatherDisplay:10.37,2013-07-04 21:03:00,
2013-07-04 23:08:00,60.4,58.4,29.06,SE,125,0.0,0.0,93,0.00,CLR,FEW,0.05,0.0,WeatherDisplay:10.37,2013-07-04 21:08:00,
2013-07-04 23:13:00,60.8,58.8,29.06,SSE,160,0.0,0.0,93,0.00,CLR,FEW,0.05,0.0,WeatherDisplay:10.37,2013-07-04 21:13:00,
2013-07-04 23:18:00,60.8,58.8,29.06,SSE,160,0.0,0.0,93,0.00,CLR,FEW,0.05,0.0,WeatherDisplay:10.37,2013-07-04 21:18:00,
2013-07-04 23:23:00,60.4,58.4,29.06,SSE,160,0.0,0.0,93,0.00,CLR,FEW,0.05,0.0,WeatherDisplay:10.37,2013-07-04 21:23:00,
2013-07-04 23:28:00,60.6,58.6,29.06,SSE,160,0.0,0.0,93,0.00,CLR,FEW,0.05,0.0,WeatherDisplay:10.37,2013-07-04 21:28:00,
2013-07-04 23:33:00,60.8,59.1,29.06,SSE,160,0.0,0.0,94,0.00,CLR,FEW,0.05,0.0,WeatherDisplay:10.37,2013-07-04 21:33:00,
2013-07-04 23:38:00,60.8,59.1,29.06,SSE,160,0.0,0.0,94,0.00,CLR,FEW,0.05,0.0,WeatherDisplay:10.37,2013-07-04 21:38:00,
2013-07-04 23:43:00,60.8,59.1,29.06,SSE,160,0.0,0.0,94,0.00,CLR,FEW,0.05,0.0,WeatherDisplay:10.37,2013-07-04 21:43:00,
2013-07-04 23:48:00,60.8,59.1,29.06,SSE,160,0.0,0.0,94,0.00,CLR,FEW,0.05,0.0,WeatherDisplay:10.37,2013-07-04 21:48:00,
2013-07-04 23:53:00,60.6,58.6,29.06,SSE,160,0.0,0.0,93,0.00,CLR,FEW,0.05,0.0,WeatherDisplay:10.37,2013-07-04 21:53:00,
2013-07-04 23:58:00,60.8,59.1,29.09,SSE,160,0.0,0.0,94,0.00,CLR,FEW,0.05,0.0,WeatherDisplay:10.37,2013-07-04 21:58:00,